Ulisse Primo — INLN — position and weather

sailwx.info

Track history (hours):
 
Tides and Currents Weather Stations Pressure Air Temp Water Temp Dewpoint Dewpoint Depression Visibility Wind Speed Wind Dir Waves Ship Positions

Ulisse Primo

Last reported at 2018-Mar-16 09:45 UTC. Time now 2018-Apr-20 05:05 UTC.
Position N 40°30' E 017°09'.
Warning: this ship's position is 34 days out of date.

Length 50 m.

Type: Other ship. MMSI: 247033000.

Date/timePositionNaut miles runAvg speedWind from/ knotsBaromVisibWave heightAir tempDewpointWater temp
2018-Mar-16 09:45N 40°30' E 017°09'3 0.1
2018-Mar-15 10:03N 40°28' E 017°12'0 0.0
2018-Mar-15 10:00N 40°28' E 017°12'0 0.0
2018-Mar-15 09:30N 40°28' E 017°12'0 0.0
2018-Mar-15 09:00N 40°28' E 017°12'0 0.0
2018-Mar-15 08:30N 40°28' E 017°12'0 0.0
2018-Mar-15 08:00N 40°28' E 017°12'0 0.0
2018-Mar-15 07:30N 40°28' E 017°12'0 0.0
2018-Mar-15 07:00N 40°28' E 017°12'0 0.0
2018-Mar-15 06:30N 40°28' E 017°12'1 2.8
2018-Mar-15 06:00N 40°29' E 017°10'0 0.4
2018-Mar-15 05:28N 40°29' E 017°11'0 0.0
2018-Mar-15 05:00N 40°29' E 017°11'1 2.9
2018-Mar-15 04:30N 40°28' E 017°12'0 0.0
2018-Mar-15 04:00N 40°28' E 017°12'0 0.0
2018-Mar-15 03:30N 40°28' E 017°12'0 0.0
2018-Mar-15 03:00N 40°28' E 017°12'0 0.0
2018-Mar-15 02:29N 40°28' E 017°12'0 0.0
2018-Mar-15 02:00N 40°28' E 017°12'0 0.0
2018-Mar-15 01:30N 40°28' E 017°12'0 0.0
2018-Mar-15 01:00N 40°28' E 017°12'0 0.0
2018-Mar-15 00:30N 40°28' E 017°12'0 0.0
2018-Mar-15 00:00N 40°28' E 017°12'0 0.0
2018-Mar-14 23:30N 40°28' E 017°12'0 0.0
2018-Mar-14 23:00N 40°28' E 017°12'0 0.0
2018-Mar-14 22:30N 40°29' E 017°12'0 0.9
2018-Mar-14 22:00N 40°28' E 017°12'1 2.8
2018-Mar-14 21:31N 40°29' E 017°11'0 0.0
2018-Mar-14 21:00N 40°29' E 017°11'1 2.1
2018-Mar-14 20:30N 40°28' E 017°11'1 1.9
2018-Mar-14 20:00N 40°28' E 017°12'0 0.0
2018-Mar-14 19:30N 40°28' E 017°12'0 0.0
2018-Mar-14 19:00N 40°28' E 017°12'0 0.0
2018-Mar-14 18:30N 40°28' E 017°12'0 0.0
2018-Mar-14 18:00N 40°28' E 017°12'0 0.0
2018-Mar-14 17:30N 40°28' E 017°12'0 0.0
2018-Mar-14 17:00N 40°28' E 017°12'0 0.0
2018-Mar-14 16:30N 40°28' E 017°12'0 0.0
2018-Mar-14 16:00N 40°28' E 017°12'0 0.0
2018-Mar-14 15:30N 40°28' E 017°12'0 0.0
2018-Mar-14 14:59N 40°28' E 017°12'0 0.0
2018-Mar-14 14:30N 40°28' E 017°12'0 0.0
2018-Mar-14 14:00N 40°28' E 017°12'0 0.0
2018-Mar-14 13:29N 40°28' E 017°12'0 0.0
2018-Mar-14 13:00N 40°28' E 017°12'1 2.9
2018-Mar-14 12:30N 40°29' E 017°10'0 0.3
2018-Mar-14 11:58N 40°29' E 017°11'0 0.0
2018-Mar-14 11:30N 40°29' E 017°11'1 2.8
2018-Mar-14 11:00N 40°28' E 017°12'0 0.0
2018-Mar-14 10:30N 40°28' E 017°12'0 0.0
2018-Mar-14 10:00N 40°28' E 017°12'0 0.0
2018-Mar-14 09:30N 40°28' E 017°12'0 0.0
2018-Mar-14 09:00N 40°28' E 017°12'0 0.0
2018-Mar-14 08:30N 40°28' E 017°12'0 0.0
2018-Mar-14 08:00N 40°28' E 017°12'0 0.0
2018-Mar-14 07:30N 40°28' E 017°12'0 0.0
2018-Mar-14 07:00N 40°28' E 017°12'1 1.4
2018-Mar-14 06:30N 40°28' E 017°11'1 2.3
2018-Mar-14 06:00N 40°29' E 017°11'0 0.0
2018-Mar-14 05:30N 40°29' E 017°11'1 1.5
2018-Mar-14 05:00N 40°29' E 017°10'1 2.7
2018-Mar-14 04:30N 40°29' E 017°12'0 0.0
2018-Mar-14 04:00N 40°28' E 017°12'0 0.0
2018-Mar-14 03:30N 40°28' E 017°12'0 0.0
2018-Mar-14 03:00N 40°28' E 017°12'0 0.0
2018-Mar-14 02:31N 40°28' E 017°12'0 0.0
2018-Mar-14 02:00N 40°28' E 017°12'0 0.0
2018-Mar-14 01:30N 40°28' E 017°12'0 0.0
2018-Mar-14 01:00N 40°28' E 017°12'0 0.0
2018-Mar-14 00:30N 40°28' E 017°12'0 0.0
2018-Mar-14 00:00N 40°29' E 017°12'0 0.0
2018-Mar-13 23:30N 40°29' E 017°12'0 0.0
2018-Mar-13 23:00N 40°29' E 017°12'1 2.7
2018-Mar-13 22:30N 40°29' E 017°10'1 1.4
2018-Mar-13 22:00N 40°29' E 017°11'0 0.0
2018-Mar-13 21:30N 40°29' E 017°11'0 0.4
2018-Mar-13 21:01N 40°29' E 017°10'0 0.6
2018-Mar-13 20:30N 40°29' E 017°10'1 2.9
2018-Mar-13 20:00N 40°29' E 017°12'0 0.0
2018-Mar-13 19:30N 40°29' E 017°12'0 0.0
2018-Mar-13 18:59N 40°29' E 017°12'0 0.0
2018-Mar-13 18:30N 40°29' E 017°12'0 0.0
2018-Mar-13 18:00N 40°29' E 017°12'0 0.0
2018-Mar-13 17:30N 40°29' E 017°12'0 0.0
2018-Mar-13 17:00N 40°29' E 017°12'0 0.3
2018-Mar-13 16:30N 40°29' E 017°12'0 0.2
2018-Mar-13 16:00N 40°29' E 017°12'0 0.0
2018-Mar-13 15:31N 40°29' E 017°12'0 0.4
2018-Mar-13 15:00N 40°28' E 017°12'0 0.0
2018-Mar-13 14:30N 40°28' E 017°12'0 0.0
2018-Mar-13 14:01N 40°28' E 017°12'0 0.0
2018-Mar-13 13:30N 40°28' E 017°12'0 0.0
2018-Mar-13 13:00N 40°28' E 017°12'0 0.0
2018-Mar-13 12:30N 40°28' E 017°12'0 0.0
2018-Mar-13 12:00N 40°28' E 017°12'0 0.0
2018-Mar-13 11:30N 40°28' E 017°12'1 1.9
2018-Mar-13 11:00N 40°28' E 017°11'1 2.1
2018-Mar-13 10:30N 40°29' E 017°11'0 0.0
2018-Mar-13 10:00N 40°29' E 017°11'1 2.6
2018-Mar-13 09:30N 40°28' E 017°11'1 1.4
2018-Mar-13 09:00N 40°28' E 017°12'0 0.0
2018-Mar-13 08:30N 40°28' E 017°12'0 0.0
2018-Mar-13 08:00N 40°28' E 017°12'0 0.0
2018-Mar-13 07:30N 40°28' E 017°12'0 0.0
2018-Mar-13 07:01N 40°28' E 017°12'0 0.0
2018-Mar-13 06:30N 40°28' E 017°12'0 0.0
2018-Mar-13 06:00N 40°28' E 017°12'0 0.0
2018-Mar-13 05:30N 40°28' E 017°12'1 1.8
2018-Mar-13 05:00N 40°28' E 017°11'1 2.3
2018-Mar-13 04:30N 40°29' E 017°11'0 0.0
2018-Mar-13 04:00N 40°29' E 017°11'0 0.0
2018-Mar-13 03:30N 40°29' E 017°11'0 0.1
2018-Mar-13 03:00N 40°29' E 017°11'0 0.1
2018-Mar-13 02:26N 40°29' E 017°11'1 2.4
2018-Mar-13 02:00N 40°28' E 017°11'1 1.9
2018-Mar-13 01:30N 40°29' E 017°12'0 0.0
2018-Mar-13 01:00N 40°29' E 017°12'0 0.0
2018-Mar-13 00:30N 40°29' E 017°12'0 0.0
2018-Mar-13 00:00N 40°29' E 017°12'0 0.0
2018-Mar-12 23:30N 40°29' E 017°12'0 0.0
2018-Mar-12 23:00N 40°29' E 017°12'0 0.0
2018-Mar-12 22:30N 40°29' E 017°12'0 0.0
2018-Mar-12 22:00N 40°29' E 017°12'0 0.0
2018-Mar-12 21:31N 40°29' E 017°12'0 0.0
2018-Mar-12 21:00N 40°29' E 017°12'0 0.0
2018-Mar-12 20:30N 40°29' E 017°12'0 0.0
2018-Mar-12 20:01N 40°29' E 017°12'0 0.0
2018-Mar-12 19:30N 40°29' E 017°12'0 0.0
2018-Mar-12 19:01N 40°29' E 017°12'0 0.0
2018-Mar-12 18:30N 40°29' E 017°12'0 0.0
2018-Mar-12 18:00N 40°29' E 017°12'0 0.0
2018-Mar-12 17:30N 40°29' E 017°12'0 0.0
2018-Mar-12 17:00N 40°29' E 017°12'0 0.0
2018-Mar-12 16:30N 40°29' E 017°12'0 0.0
2018-Mar-12 16:00N 40°29' E 017°12'0 0.1
2018-Mar-12 15:30N 40°29' E 017°12'0 0.1
2018-Mar-12 15:00N 40°29' E 017°12'0 0.0
2018-Mar-12 14:30N 40°29' E 017°12'0 0.0
2018-Mar-12 14:00N 40°29' E 017°12'0 0.1
2018-Mar-12 13:30N 40°29' E 017°12'1 2.9
2018-Mar-12 13:00N 40°29' E 017°10'1 1.1
2018-Mar-12 12:29N 40°29' E 017°11'0 0.0
2018-Mar-12 12:00N 40°29' E 017°11'0 0.0
2018-Mar-12 11:28N 40°29' E 017°11'1 2.1
2018-Mar-12 10:59N 40°28' E 017°11'1 2.1
2018-Mar-12 10:30N 40°28' E 017°12'0 0.0
2018-Mar-12 10:00N 40°28' E 017°12'0 0.0
2018-Mar-12 09:30N 40°28' E 017°12'0 0.0
2018-Mar-12 09:00N 40°28' E 017°12'0 0.0
2018-Mar-12 08:30N 40°28' E 017°12'0 0.0
2018-Mar-12 08:00N 40°28' E 017°12'0 0.0
2018-Mar-12 07:30N 40°28' E 017°12'1 2.4
2018-Mar-12 07:00N 40°28' E 017°11'1 1.9
2018-Mar-12 06:30N 40°29' E 017°11'0 1.0
2018-Mar-12 06:00N 40°29' E 017°10'1 2.6
2018-Mar-12 05:29N 40°29' E 017°12'0 0.0
2018-Mar-12 05:00N 40°29' E 017°12'0 0.0
2018-Mar-12 04:31N 40°29' E 017°12'0 0.0
2018-Mar-12 04:00N 40°29' E 017°12'0 0.0
2018-Mar-12 03:30N 40°29' E 017°12'0 0.0
2018-Mar-12 03:00N 40°29' E 017°12'0 0.0
2018-Mar-12 02:30N 40°29' E 017°12'0 0.0
2018-Mar-12 02:00N 40°29' E 017°12'0 0.0
2018-Mar-12 01:31N 40°29' E 017°12'0 0.0
2018-Mar-12 01:01N 40°29' E 017°12'0 0.0
2018-Mar-12 00:31N 40°29' E 017°12'0 0.0
2018-Mar-12 00:00N 40°29' E 017°12'0 0.1
2018-Mar-11 23:30N 40°29' E 017°12'1 2.6
2018-Mar-11 23:00N 40°29' E 017°11'0 0.1
2018-Mar-11 22:30N 40°29' E 017°11'1 1.0
2018-Mar-11 21:59N 40°29' E 017°10'1 1.2
2018-Mar-11 21:30N 40°29' E 017°11'0 0.3
2018-Mar-11 21:00N 40°29' E 017°10'2 3.1
2018-Mar-11 20:30N 40°28' E 017°12'0 0.3
2018-Mar-11 20:00N 40°29' E 017°12'0 0.0
2018-Mar-11 19:30N 40°29' E 017°12'0 0.0
2018-Mar-11 19:00N 40°29' E 017°12'0 0.0
2018-Mar-11 18:30N 40°29' E 017°12'0 0.0
2018-Mar-11 18:00N 40°29' E 017°12'0 0.4
2018-Mar-11 17:30N 40°28' E 017°12'0 0.0
2018-Mar-11 16:59N 40°28' E 017°12'0 0.0
2018-Mar-11 16:30N 40°28' E 017°12'0 0.0
2018-Mar-11 16:00N 40°28' E 017°12'0 0.0
2018-Mar-11 15:29N 40°28' E 017°12'0 0.0
2018-Mar-11 15:00N 40°28' E 017°12'0 0.0
2018-Mar-11 14:30N 40°28' E 017°12'0 0.0
2018-Mar-11 14:00N 40°28' E 017°12'1 1.5
2018-Mar-11 13:30N 40°28' E 017°11'1 2.5
2018-Mar-11 13:00N 40°29' E 017°11'0 0.0
2018-Mar-11 12:30N 40°29' E 017°11'1 2.1
2018-Mar-11 12:00N 40°28' E 017°11'1 1.8
2018-Mar-11 11:30N 40°28' E 017°12'0 0.0
2018-Mar-11 11:00N 40°28' E 017°12'0 0.0
2018-Mar-11 10:30N 40°28' E 017°12'0 0.0
2018-Mar-11 10:00N 40°28' E 017°12'0 0.0
2018-Mar-11 09:30N 40°28' E 017°12'0 0.0
2018-Mar-11 09:00N 40°28' E 017°12'0 0.0
2018-Mar-11 08:30N 40°28' E 017°12'0 0.0
2018-Mar-11 08:00N 40°28' E 017°12'1 1.2
2018-Mar-11 07:30N 40°28' E 017°11'1 2.6
2018-Mar-11 07:00N 40°29' E 017°11'0 0.1
2018-Mar-11 06:30N 40°29' E 017°11'2 3.1
2018-Mar-11 06:00N 40°28' E 017°12'0 0.2
2018-Mar-11 05:30N 40°28' E 017°12'0 0.0
2018-Mar-11 05:01N 40°28' E 017°12'0 0.0
2018-Mar-11 04:30N 40°28' E 017°12'0 0.0
2018-Mar-11 04:00N 40°28' E 017°12'0 0.0
2018-Mar-11 03:30N 40°28' E 017°12'0 0.0
2018-Mar-11 03:00N 40°28' E 017°12'0 0.0
2018-Mar-11 02:30N 40°28' E 017°12'0 0.0
2018-Mar-11 02:00N 40°28' E 017°12'1 2.7
2018-Mar-11 01:29N 40°29' E 017°11'0 0.0
2018-Mar-11 01:01N 40°29' E 017°11'1 2.2
2018-Mar-11 00:30N 40°28' E 017°11'1 1.7
2018-Mar-11 00:00N 40°28' E 017°12'0 0.0
2018-Mar-10 23:30N 40°28' E 017°12'0 0.0
2018-Mar-10 23:00N 40°28' E 017°12'0 0.0
2018-Mar-10 22:30N 40°28' E 017°12'0 0.0
2018-Mar-10 22:01N 40°28' E 017°12'0 0.0
2018-Mar-10 21:30N 40°28' E 017°12'0 0.0
2018-Mar-10 20:59N 40°28' E 017°12'1 1.2
2018-Mar-10 20:30N 40°28' E 017°11'1 2.5
2018-Mar-10 20:00N 40°29' E 017°10'0 0.5
2018-Mar-10 19:30N 40°29' E 017°11'0 0.4
2018-Mar-10 19:00N 40°29' E 017°10'0 0.0
2018-Mar-10 18:30N 40°29' E 017°10'0 0.8
2018-Mar-10 18:01N 40°29' E 017°10'1 2.9
2018-Mar-10 17:30N 40°28' E 017°12'0 0.0
2018-Mar-10 17:00N 40°28' E 017°12'0 0.0
2018-Mar-10 16:30N 40°28' E 017°12'0 0.0
2018-Mar-10 16:00N 40°28' E 017°12'0 0.0
2018-Mar-10 15:30N 40°28' E 017°12'0 0.0
2018-Mar-10 14:44N 40°28' E 017°12'0 0.0
2018-Mar-10 14:30N 40°28' E 017°12'0 0.0
2018-Mar-10 14:00N 40°28' E 017°12'0 0.0
2018-Mar-10 13:30N 40°28' E 017°12'0 0.0
2018-Mar-10 13:00N 40°28' E 017°12'0 0.0
2018-Mar-10 12:30N 40°28' E 017°12'0 0.0
2018-Mar-10 12:01N 40°28' E 017°12'0 0.1
2018-Mar-10 11:30N 40°28' E 017°12'0 0.0
2018-Mar-10 11:00N 40°28' E 017°12'0 0.0
2018-Mar-10 10:30N 40°28' E 017°12'0 0.0
2018-Mar-10 10:00N 40°28' E 017°12'0 0.0
2018-Mar-10 09:30N 40°28' E 017°12'0 0.0
2018-Mar-10 09:00N 40°28' E 017°12'0 0.0
2018-Mar-10 08:30N 40°28' E 017°12'0 0.0
2018-Mar-10 08:00N 40°28' E 017°12'0 0.3
2018-Mar-10 07:30N 40°28' E 017°12'2 2.7
2018-Mar-10 06:57N 40°29' E 017°11'0 0.0
2018-Mar-10 06:29N 40°29' E 017°11'0 0.5
2018-Mar-10 06:00N 40°29' E 017°10'0 0.1
2018-Mar-10 05:30N 40°29' E 017°10'1 1.8
2018-Mar-10 05:00N 40°28' E 017°11'1 1.8
2018-Mar-10 04:25N 40°28' E 017°12'0 0.0
2018-Mar-10 04:00N 40°28' E 017°12'0 0.0
2018-Mar-10 03:30N 40°28' E 017°12'0 0.0
2018-Mar-10 02:59N 40°28' E 017°12'0 0.0
2018-Mar-10 02:30N 40°28' E 017°12'0 0.0
2018-Mar-10 02:00N 40°28' E 017°12'0 0.0
2018-Mar-10 01:30N 40°28' E 017°12'0 0.0
2018-Mar-10 01:00N 40°28' E 017°12'0 0.0
2018-Mar-10 00:30N 40°28' E 017°12'1 1.1
2018-Mar-10 00:00N 40°28' E 017°12'1 2.7
2018-Mar-09 23:30N 40°29' E 017°11'0 0.0
2018-Mar-09 22:59N 40°29' E 017°11'0 0.4
2018-Mar-09 22:30N 40°29' E 017°10'1 2.3
2018-Mar-09 22:00N 40°28' E 017°11'1 1.8
2018-Mar-09 21:30N 40°28' E 017°12'0 0.0
2018-Mar-09 21:00N 40°28' E 017°12'0 0.0
2018-Mar-09 20:30N 40°28' E 017°12'0 0.0
2018-Mar-09 20:00N 40°28' E 017°12'0 0.0
2018-Mar-09 19:30N 40°28' E 017°12'0 0.0
2018-Mar-09 19:00N 40°28' E 017°12'0 0.0
2018-Mar-09 18:30N 40°28' E 017°12'0 0.0
2018-Mar-09 18:00N 40°28' E 017°12'0 0.0
2018-Mar-09 17:30N 40°28' E 017°12'0 0.0
2018-Mar-09 17:00N 40°28' E 017°12'1 2.9
2018-Mar-09 16:30N 40°29' E 017°10'0 0.7
2018-Mar-09 15:55N 40°29' E 017°11'0 0.0
2018-Mar-09 15:30N 40°29' E 017°11'1 2.7
2018-Mar-09 15:00N 40°28' E 017°12'0 1.0
2018-Mar-09 14:30N 40°28' E 017°12'0 0.0
2018-Mar-09 14:00N 40°28' E 017°12'0 0.0
2018-Mar-09 13:30N 40°28' E 017°12'0 0.0
2018-Mar-09 13:00N 40°28' E 017°12'0 0.0
2018-Mar-09 12:30N 40°28' E 017°12'0 0.0
2018-Mar-09 12:00N 40°28' E 017°12'0 0.0
2018-Mar-09 11:30N 40°28' E 017°12'1 2.4
2018-Mar-09 11:00N 40°28' E 017°11'1 1.8
2018-Mar-09 10:30N 40°29' E 017°11'0 0.0
2018-Mar-09 09:59N 40°29' E 017°11'1 3.1
2018-Mar-09 09:30N 40°28' E 017°12'0 0.4
2018-Mar-09 09:00N 40°28' E 017°12'0 0.0
2018-Mar-09 08:30N 40°28' E 017°12'0 0.0
2018-Mar-09 08:00N 40°28' E 017°12'0 0.0
2018-Mar-09 07:29N 40°28' E 017°12'0 0.0
2018-Mar-09 07:00N 40°28' E 017°12'0 0.1
2018-Mar-09 06:30N 40°29' E 017°12'1 2.8
2018-Mar-09 06:00N 40°29' E 017°11'0 0.0
2018-Mar-09 05:30N 40°29' E 017°11'0 0.9
2018-Mar-09 05:00N 40°29' E 017°10'1 2.8
2018-Mar-09 04:30N 40°28' E 017°12'0 0.0
2018-Mar-09 04:00N 40°28' E 017°12'0 0.0
2018-Mar-09 03:30N 40°28' E 017°12'0 0.0
2018-Mar-09 03:00N 40°28' E 017°12'0 0.0
2018-Mar-09 02:30N 40°28' E 017°12'0 0.0
2018-Mar-09 02:00N 40°28' E 017°12'0 0.0
2018-Mar-09 01:31N 40°28' E 017°12'0 0.0
2018-Mar-09 01:00N 40°28' E 017°12'0 0.0
2018-Mar-09 00:30N 40°28' E 017°12'1 1.8
2018-Mar-09 00:00N 40°28' E 017°11'1 2.1
2018-Mar-08 23:30N 40°29' E 017°11'0 0.0
2018-Mar-08 23:00N 40°29' E 017°11'0 0.0
2018-Mar-08 22:30N 40°29' E 017°11'1 1.6
2018-Mar-08 22:00N 40°29' E 017°10'1 2.4
2018-Mar-08 21:30N 40°29' E 017°12'0 0.0
2018-Mar-08 21:00N 40°29' E 017°12'0 0.0
2018-Mar-08 20:29N 40°29' E 017°12'1 0.1
2018-Mar-07 22:00N 40°29' E 017°11'1 1.7
2018-Mar-07 21:30N 40°28' E 017°11'1 2.3
2018-Mar-07 21:00N 40°29' E 017°12'0 0.0
2018-Mar-07 20:30N 40°29' E 017°12'0 0.4
2018-Mar-07 20:00N 40°28' E 017°12'0 0.0
2018-Mar-07 19:30N 40°28' E 017°12'0 0.0
2018-Mar-07 19:00N 40°28' E 017°12'0 0.0
2018-Mar-07 15:39N 40°28' E 017°12'0 0.1
2018-Mar-07 15:30N 40°28' E 017°12'0 0.1
2018-Mar-07 15:00N 40°28' E 017°12'0 0.0
2018-Mar-07 14:30N 40°28' E 017°12'0 0.0
2018-Mar-07 14:00N 40°28' E 017°12'1 2.8
2018-Mar-07 13:30N 40°29' E 017°11'0 0.0
2018-Mar-07 13:00N 40°29' E 017°11'1 2.7
2018-Mar-07 12:30N 40°28' E 017°12'1 1.0
2018-Mar-07 12:00N 40°28' E 017°12'0 0.0
2018-Mar-07 11:30N 40°28' E 017°12'0 0.0
2018-Mar-07 11:00N 40°28' E 017°12'0 0.0
2018-Mar-07 10:30N 40°28' E 017°12'0 0.2
2018-Mar-07 10:00N 40°29' E 017°12'1 2.5
2018-Mar-07 09:27N 40°29' E 017°11'0 0.0
2018-Mar-07 09:00N 40°29' E 017°11'1 2.9
2018-Mar-07 08:30N 40°28' E 017°12'0 0.6
2018-Mar-07 08:00N 40°28' E 017°12'0 0.0
2018-Mar-07 07:30N 40°28' E 017°12'0 0.0
2018-Mar-07 07:00N 40°28' E 017°12'0 0.0
2018-Mar-07 06:30N 40°28' E 017°12'1 2.3
2018-Mar-07 06:00N 40°28' E 017°11'1 1.6
2018-Mar-07 05:29N 40°29' E 017°11'1 1.3
2018-Mar-07 05:00N 40°29' E 017°10'1 2.7
2018-Mar-07 04:30N 40°29' E 017°12'0 0.0
2018-Mar-07 04:00N 40°29' E 017°12'0 0.0
2018-Mar-07 03:30N 40°29' E 017°12'0 0.0
2018-Mar-07 03:00N 40°29' E 017°12'0 0.0
2018-Mar-07 02:30N 40°29' E 017°12'0 0.0
2018-Mar-07 02:00N 40°29' E 017°12'0 0.0
2018-Mar-07 01:30N 40°29' E 017°12'0 0.0
2018-Mar-07 01:00N 40°29' E 017°12'0 0.0
2018-Mar-07 00:30N 40°29' E 017°12'0 0.4
2018-Mar-07 00:00N 40°28' E 017°12'0 0.0
2018-Mar-06 23:30N 40°28' E 017°12'0 0.0
2018-Mar-06 23:00N 40°28' E 017°12'0 0.0
2018-Mar-06 22:30N 40°28' E 017°12'0 0.0
2018-Mar-06 21:59N 40°28' E 017°12'0 0.0
2018-Mar-06 21:30N 40°28' E 017°12'0 0.0
2018-Mar-06 21:00N 40°28' E 017°12'0 0.0
2018-Mar-06 20:30N 40°28' E 017°12'0 0.0
2018-Mar-06 20:00N 40°28' E 017°12'0 0.0
2018-Mar-06 19:30N 40°28' E 017°12'0 0.0
2018-Mar-06 19:00N 40°28' E 017°12'0 0.0
2018-Mar-06 18:30N 40°28' E 017°12'0 0.0
2018-Mar-06 18:00N 40°28' E 017°12'0 0.0
2018-Mar-06 17:30N 40°28' E 017°12'0 0.0
2018-Mar-06 17:00N 40°28' E 017°12'0 0.0
2018-Mar-06 16:30N 40°28' E 017°12'0 0.0
2018-Mar-06 16:00N 40°28' E 017°12'0 0.0
2018-Mar-06 15:30N 40°28' E 017°12'0 0.0
2018-Mar-06 15:00N 40°28' E 017°12'0 0.0
2018-Mar-06 14:30N 40°28' E 017°12'0 0.0
2018-Mar-06 14:00N 40°28' E 017°12'0 0.0
2018-Mar-06 13:29N 40°28' E 017°12'0 0.0
2018-Mar-06 13:00N 40°28' E 017°12'0 0.0
2018-Mar-06 12:30N 40°28' E 017°12'0 0.0
2018-Mar-06 12:00N 40°28' E 017°12'0 0.0
2018-Mar-06 11:30N 40°28' E 017°12'0 0.0
2018-Mar-06 11:00N 40°28' E 017°12'0 0.2
2018-Mar-06 10:30N 40°29' E 017°12'0 0.0
2018-Mar-06 09:57N 40°29' E 017°12'  
Track history (hours):
 
Tides and Currents Weather Stations Pressure Air Temp Water Temp Dewpoint Dewpoint Depression Visibility Wind Speed Wind Dir Waves Ship Positions

Ulisse Primo

Last reported at 2018-Mar-16 09:45 UTC. Time now 2018-Apr-20 05:05 UTC.
Position N 40°30' E 017°09'.
Warning: this ship's position is 34 days out of date.

Length 50 m.

Type: Other ship. MMSI: 247033000.

Date/timePositionNaut miles runAvg speedWind from/ knotsBaromVisibWave heightAir tempDewpointWater temp
2018-Mar-16 09:45N 40°30' E 017°09'3 0.1
2018-Mar-15 10:03N 40°28' E 017°12'0 0.0
2018-Mar-15 10:00N 40°28' E 017°12'0 0.0
2018-Mar-15 09:30N 40°28' E 017°12'0 0.0
2018-Mar-15 09:00N 40°28' E 017°12'0 0.0
2018-Mar-15 08:30N 40°28' E 017°12'0 0.0
2018-Mar-15 08:00N 40°28' E 017°12'0 0.0
2018-Mar-15 07:30N 40°28' E 017°12'0 0.0
2018-Mar-15 07:00N 40°28' E 017°12'0 0.0
2018-Mar-15 06:30N 40°28' E 017°12'1 2.8
2018-Mar-15 06:00N 40°29' E 017°10'0 0.4
2018-Mar-15 05:28N 40°29' E 017°11'0 0.0
2018-Mar-15 05:00N 40°29' E 017°11'1 2.9
2018-Mar-15 04:30N 40°28' E 017°12'0 0.0
2018-Mar-15 04:00N 40°28' E 017°12'0 0.0
2018-Mar-15 03:30N 40°28' E 017°12'0 0.0
2018-Mar-15 03:00N 40°28' E 017°12'0 0.0
2018-Mar-15 02:29N 40°28' E 017°12'0 0.0
2018-Mar-15 02:00N 40°28' E 017°12'0 0.0
2018-Mar-15 01:30N 40°28' E 017°12'0 0.0
2018-Mar-15 01:00N 40°28' E 017°12'0 0.0
2018-Mar-15 00:30N 40°28' E 017°12'0 0.0
2018-Mar-15 00:00N 40°28' E 017°12'0 0.0
2018-Mar-14 23:30N 40°28' E 017°12'0 0.0
2018-Mar-14 23:00N 40°28' E 017°12'0 0.0
2018-Mar-14 22:30N 40°29' E 017°12'0 0.9
2018-Mar-14 22:00N 40°28' E 017°12'1 2.8
2018-Mar-14 21:31N 40°29' E 017°11'0 0.0
2018-Mar-14 21:00N 40°29' E 017°11'1 2.1
2018-Mar-14 20:30N 40°28' E 017°11'1 1.9
2018-Mar-14 20:00N 40°28' E 017°12'0 0.0
2018-Mar-14 19:30N 40°28' E 017°12'0 0.0
2018-Mar-14 19:00N 40°28' E 017°12'0 0.0
2018-Mar-14 18:30N 40°28' E 017°12'0 0.0
2018-Mar-14 18:00N 40°28' E 017°12'0 0.0
2018-Mar-14 17:30N 40°28' E 017°12'0 0.0
2018-Mar-14 17:00N 40°28' E 017°12'0 0.0
2018-Mar-14 16:30N 40°28' E 017°12'0 0.0
2018-Mar-14 16:00N 40°28' E 017°12'0 0.0
2018-Mar-14 15:30N 40°28' E 017°12'0 0.0
2018-Mar-14 14:59N 40°28' E 017°12'0 0.0
2018-Mar-14 14:30N 40°28' E 017°12'0 0.0
2018-Mar-14 14:00N 40°28' E 017°12'0 0.0
2018-Mar-14 13:29N 40°28' E 017°12'0 0.0
2018-Mar-14 13:00N 40°28' E 017°12'1 2.9
2018-Mar-14 12:30N 40°29' E 017°10'0 0.3
2018-Mar-14 11:58N 40°29' E 017°11'0 0.0
2018-Mar-14 11:30N 40°29' E 017°11'1 2.8
2018-Mar-14 11:00N 40°28' E 017°12'0 0.0
2018-Mar-14 10:30N 40°28' E 017°12'0 0.0
2018-Mar-14 10:00N 40°28' E 017°12'0 0.0
2018-Mar-14 09:30N 40°28' E 017°12'0 0.0
2018-Mar-14 09:00N 40°28' E 017°12'0 0.0
2018-Mar-14 08:30N 40°28' E 017°12'0 0.0
2018-Mar-14 08:00N 40°28' E 017°12'0 0.0
2018-Mar-14 07:30N 40°28' E 017°12'0 0.0
2018-Mar-14 07:00N 40°28' E 017°12'1 1.4
2018-Mar-14 06:30N 40°28' E 017°11'1 2.3
2018-Mar-14 06:00N 40°29' E 017°11'0 0.0
2018-Mar-14 05:30N 40°29' E 017°11'1 1.5
2018-Mar-14 05:00N 40°29' E 017°10'1 2.7
2018-Mar-14 04:30N 40°29' E 017°12'0 0.0
2018-Mar-14 04:00N 40°28' E 017°12'0 0.0
2018-Mar-14 03:30N 40°28' E 017°12'0 0.0
2018-Mar-14 03:00N 40°28' E 017°12'0 0.0
2018-Mar-14 02:31N 40°28' E 017°12'0 0.0
2018-Mar-14 02:00N 40°28' E 017°12'0 0.0
2018-Mar-14 01:30N 40°28' E 017°12'0 0.0
2018-Mar-14 01:00N 40°28' E 017°12'0 0.0
2018-Mar-14 00:30N 40°28' E 017°12'0 0.0
2018-Mar-14 00:00N 40°29' E 017°12'0 0.0
2018-Mar-13 23:30N 40°29' E 017°12'0 0.0
2018-Mar-13 23:00N 40°29' E 017°12'1 2.7
2018-Mar-13 22:30N 40°29' E 017°10'1 1.4
2018-Mar-13 22:00N 40°29' E 017°11'0 0.0
2018-Mar-13 21:30N 40°29' E 017°11'0 0.4
2018-Mar-13 21:01N 40°29' E 017°10'0 0.6
2018-Mar-13 20:30N 40°29' E 017°10'1 2.9
2018-Mar-13 20:00N 40°29' E 017°12'0 0.0
2018-Mar-13 19:30N 40°29' E 017°12'0 0.0
2018-Mar-13 18:59N 40°29' E 017°12'0 0.0
2018-Mar-13 18:30N 40°29' E 017°12'0 0.0
2018-Mar-13 18:00N 40°29' E 017°12'0 0.0
2018-Mar-13 17:30N 40°29' E 017°12'0 0.0
2018-Mar-13 17:00N 40°29' E 017°12'0 0.3
2018-Mar-13 16:30N 40°29' E 017°12'0 0.2
2018-Mar-13 16:00N 40°29' E 017°12'0 0.0
2018-Mar-13 15:31N 40°29' E 017°12'0 0.4
2018-Mar-13 15:00N 40°28' E 017°12'0 0.0
2018-Mar-13 14:30N 40°28' E 017°12'0 0.0
2018-Mar-13 14:01N 40°28' E 017°12'0 0.0
2018-Mar-13 13:30N 40°28' E 017°12'0 0.0
2018-Mar-13 13:00N 40°28' E 017°12'0 0.0
2018-Mar-13 12:30N 40°28' E 017°12'0 0.0
2018-Mar-13 12:00N 40°28' E 017°12'0 0.0
2018-Mar-13 11:30N 40°28' E 017°12'1 1.9
2018-Mar-13 11:00N 40°28' E 017°11'1 2.1
2018-Mar-13 10:30N 40°29' E 017°11'0 0.0
2018-Mar-13 10:00N 40°29' E 017°11'1 2.6
2018-Mar-13 09:30N 40°28' E 017°11'1 1.4
2018-Mar-13 09:00N 40°28' E 017°12'0 0.0
2018-Mar-13 08:30N 40°28' E 017°12'0 0.0
2018-Mar-13 08:00N 40°28' E 017°12'0 0.0
2018-Mar-13 07:30N 40°28' E 017°12'0 0.0
2018-Mar-13 07:01N 40°28' E 017°12'0 0.0
2018-Mar-13 06:30N 40°28' E 017°12'0 0.0
2018-Mar-13 06:00N 40°28' E 017°12'0 0.0
2018-Mar-13 05:30N 40°28' E 017°12'1 1.8
2018-Mar-13 05:00N 40°28' E 017°11'1 2.3
2018-Mar-13 04:30N 40°29' E 017°11'0 0.0
2018-Mar-13 04:00N 40°29' E 017°11'0 0.0
2018-Mar-13 03:30N 40°29' E 017°11'0 0.1
2018-Mar-13 03:00N 40°29' E 017°11'0 0.1
2018-Mar-13 02:26N 40°29' E 017°11'1 2.4
2018-Mar-13 02:00N 40°28' E 017°11'1 1.9
2018-Mar-13 01:30N 40°29' E 017°12'0 0.0
2018-Mar-13 01:00N 40°29' E 017°12'0 0.0
2018-Mar-13 00:30N 40°29' E 017°12'0 0.0
2018-Mar-13 00:00N 40°29' E 017°12'0 0.0
2018-Mar-12 23:30N 40°29' E 017°12'0 0.0
2018-Mar-12 23:00N 40°29' E 017°12'0 0.0
2018-Mar-12 22:30N 40°29' E 017°12'0 0.0
2018-Mar-12 22:00N 40°29' E 017°12'0 0.0
2018-Mar-12 21:31N 40°29' E 017°12'0 0.0
2018-Mar-12 21:00N 40°29' E 017°12'0 0.0
2018-Mar-12 20:30N 40°29' E 017°12'0 0.0
2018-Mar-12 20:01N 40°29' E 017°12'0 0.0
2018-Mar-12 19:30N 40°29' E 017°12'0 0.0
2018-Mar-12 19:01N 40°29' E 017°12'0 0.0
2018-Mar-12 18:30N 40°29' E 017°12'0 0.0
2018-Mar-12 18:00N 40°29' E 017°12'0 0.0
2018-Mar-12 17:30N 40°29' E 017°12'0 0.0
2018-Mar-12 17:00N 40°29' E 017°12'0 0.0
2018-Mar-12 16:30N 40°29' E 017°12'0 0.0
2018-Mar-12 16:00N 40°29' E 017°12'0 0.1
2018-Mar-12 15:30N 40°29' E 017°12'0 0.1
2018-Mar-12 15:00N 40°29' E 017°12'0 0.0
2018-Mar-12 14:30N 40°29' E 017°12'0 0.0
2018-Mar-12 14:00N 40°29' E 017°12'0 0.1
2018-Mar-12 13:30N 40°29' E 017°12'1 2.9
2018-Mar-12 13:00N 40°29' E 017°10'1 1.1
2018-Mar-12 12:29N 40°29' E 017°11'0 0.0
2018-Mar-12 12:00N 40°29' E 017°11'0 0.0
2018-Mar-12 11:28N 40°29' E 017°11'1 2.1
2018-Mar-12 10:59N 40°28' E 017°11'1 2.1
2018-Mar-12 10:30N 40°28' E 017°12'0 0.0
2018-Mar-12 10:00N 40°28' E 017°12'0 0.0
2018-Mar-12 09:30N 40°28' E 017°12'0 0.0
2018-Mar-12 09:00N 40°28' E 017°12'0 0.0
2018-Mar-12 08:30N 40°28' E 017°12'0 0.0
2018-Mar-12 08:00N 40°28' E 017°12'0 0.0
2018-Mar-12 07:30N 40°28' E 017°12'1 2.4
2018-Mar-12 07:00N 40°28' E 017°11'1 1.9
2018-Mar-12 06:30N 40°29' E 017°11'0 1.0
2018-Mar-12 06:00N 40°29' E 017°10'1 2.6
2018-Mar-12 05:29N 40°29' E 017°12'0 0.0
2018-Mar-12 05:00N 40°29' E 017°12'0 0.0
2018-Mar-12 04:31N 40°29' E 017°12'0 0.0
2018-Mar-12 04:00N 40°29' E 017°12'0 0.0
2018-Mar-12 03:30N 40°29' E 017°12'0 0.0
2018-Mar-12 03:00N 40°29' E 017°12'0 0.0
2018-Mar-12 02:30N 40°29' E 017°12'0 0.0
2018-Mar-12 02:00N 40°29' E 017°12'0 0.0
2018-Mar-12 01:31N 40°29' E 017°12'0 0.0
2018-Mar-12 01:01N 40°29' E 017°12'0 0.0
2018-Mar-12 00:31N 40°29' E 017°12'0 0.0
2018-Mar-12 00:00N 40°29' E 017°12'0 0.1
2018-Mar-11 23:30N 40°29' E 017°12'1 2.6
2018-Mar-11 23:00N 40°29' E 017°11'0 0.1
2018-Mar-11 22:30N 40°29' E 017°11'1 1.0
2018-Mar-11 21:59N 40°29' E 017°10'1 1.2
2018-Mar-11 21:30N 40°29' E 017°11'0 0.3
2018-Mar-11 21:00N 40°29' E 017°10'2 3.1
2018-Mar-11 20:30N 40°28' E 017°12'0 0.3
2018-Mar-11 20:00N 40°29' E 017°12'0 0.0
2018-Mar-11 19:30N 40°29' E 017°12'0 0.0
2018-Mar-11 19:00N 40°29' E 017°12'0 0.0
2018-Mar-11 18:30N 40°29' E 017°12'0 0.0
2018-Mar-11 18:00N 40°29' E 017°12'0 0.4
2018-Mar-11 17:30N 40°28' E 017°12'0 0.0
2018-Mar-11 16:59N 40°28' E 017°12'0 0.0
2018-Mar-11 16:30N 40°28' E 017°12'0 0.0
2018-Mar-11 16:00N 40°28' E 017°12'0 0.0
2018-Mar-11 15:29N 40°28' E 017°12'0 0.0
2018-Mar-11 15:00N 40°28' E 017°12'0 0.0
2018-Mar-11 14:30N 40°28' E 017°12'0 0.0
2018-Mar-11 14:00N 40°28' E 017°12'1 1.5
2018-Mar-11 13:30N 40°28' E 017°11'1 2.5
2018-Mar-11 13:00N 40°29' E 017°11'0 0.0
2018-Mar-11 12:30N 40°29' E 017°11'1 2.1
2018-Mar-11 12:00N 40°28' E 017°11'1 1.8
2018-Mar-11 11:30N 40°28' E 017°12'0 0.0
2018-Mar-11 11:00N 40°28' E 017°12'0 0.0
2018-Mar-11 10:30N 40°28' E 017°12'0 0.0
2018-Mar-11 10:00N 40°28' E 017°12'0 0.0
2018-Mar-11 09:30N 40°28' E 017°12'0 0.0
2018-Mar-11 09:00N 40°28' E 017°12'0 0.0
2018-Mar-11 08:30N 40°28' E 017°12'0 0.0
2018-Mar-11 08:00N 40°28' E 017°12'1 1.2
2018-Mar-11 07:30N 40°28' E 017°11'1 2.6
2018-Mar-11 07:00N 40°29' E 017°11'0 0.1
2018-Mar-11 06:30N 40°29' E 017°11'2 3.1
2018-Mar-11 06:00N 40°28' E 017°12'0 0.2
2018-Mar-11 05:30N 40°28' E 017°12'0 0.0
2018-Mar-11 05:01N 40°28' E 017°12'0 0.0
2018-Mar-11 04:30N 40°28' E 017°12'0 0.0
2018-Mar-11 04:00N 40°28' E 017°12'0 0.0
2018-Mar-11 03:30N 40°28' E 017°12'0 0.0
2018-Mar-11 03:00N 40°28' E 017°12'0 0.0
2018-Mar-11 02:30N 40°28' E 017°12'0 0.0
2018-Mar-11 02:00N 40°28' E 017°12'1 2.7
2018-Mar-11 01:29N 40°29' E 017°11'0 0.0
2018-Mar-11 01:01N 40°29' E 017°11'1 2.2
2018-Mar-11 00:30N 40°28' E 017°11'1 1.7
2018-Mar-11 00:00N 40°28' E 017°12'0 0.0
2018-Mar-10 23:30N 40°28' E 017°12'0 0.0
2018-Mar-10 23:00N 40°28' E 017°12'0 0.0
2018-Mar-10 22:30N 40°28' E 017°12'0 0.0
2018-Mar-10 22:01N 40°28' E 017°12'0 0.0
2018-Mar-10 21:30N 40°28' E 017°12'0 0.0
2018-Mar-10 20:59N 40°28' E 017°12'1 1.2
2018-Mar-10 20:30N 40°28' E 017°11'1 2.5
2018-Mar-10 20:00N 40°29' E 017°10'0 0.5
2018-Mar-10 19:30N 40°29' E 017°11'0 0.4
2018-Mar-10 19:00N 40°29' E 017°10'0 0.0
2018-Mar-10 18:30N 40°29' E 017°10'0 0.8
2018-Mar-10 18:01N 40°29' E 017°10'1 2.9
2018-Mar-10 17:30N 40°28' E 017°12'0 0.0
2018-Mar-10 17:00N 40°28' E 017°12'0 0.0
2018-Mar-10 16:30N 40°28' E 017°12'0 0.0
2018-Mar-10 16:00N 40°28' E 017°12'0 0.0
2018-Mar-10 15:30N 40°28' E 017°12'0 0.0
2018-Mar-10 14:44N 40°28' E 017°12'0 0.0
2018-Mar-10 14:30N 40°28' E 017°12'0 0.0
2018-Mar-10 14:00N 40°28' E 017°12'0 0.0
2018-Mar-10 13:30N 40°28' E 017°12'0 0.0
2018-Mar-10 13:00N 40°28' E 017°12'0 0.0
2018-Mar-10 12:30N 40°28' E 017°12'0 0.0
2018-Mar-10 12:01N 40°28' E 017°12'0 0.1
2018-Mar-10 11:30N 40°28' E 017°12'0 0.0
2018-Mar-10 11:00N 40°28' E 017°12'0 0.0
2018-Mar-10 10:30N 40°28' E 017°12'0 0.0
2018-Mar-10 10:00N 40°28' E 017°12'0 0.0
2018-Mar-10 09:30N 40°28' E 017°12'0 0.0
2018-Mar-10 09:00N 40°28' E 017°12'0 0.0
2018-Mar-10 08:30N 40°28' E 017°12'0 0.0
2018-Mar-10 08:00N 40°28' E 017°12'0 0.3
2018-Mar-10 07:30N 40°28' E 017°12'2 2.7
2018-Mar-10 06:57N 40°29' E 017°11'0 0.0
2018-Mar-10 06:29N 40°29' E 017°11'0 0.5
2018-Mar-10 06:00N 40°29' E 017°10'0 0.1
2018-Mar-10 05:30N 40°29' E 017°10'1 1.8
2018-Mar-10 05:00N 40°28' E 017°11'1 1.8
2018-Mar-10 04:25N 40°28' E 017°12'0 0.0
2018-Mar-10 04:00N 40°28' E 017°12'0 0.0
2018-Mar-10 03:30N 40°28' E 017°12'0 0.0
2018-Mar-10 02:59N 40°28' E 017°12'0 0.0
2018-Mar-10 02:30N 40°28' E 017°12'0 0.0
2018-Mar-10 02:00N 40°28' E 017°12'0 0.0
2018-Mar-10 01:30N 40°28' E 017°12'0 0.0
2018-Mar-10 01:00N 40°28' E 017°12'0 0.0
2018-Mar-10 00:30N 40°28' E 017°12'1 1.1
2018-Mar-10 00:00N 40°28' E 017°12'1 2.7
2018-Mar-09 23:30N 40°29' E 017°11'0 0.0
2018-Mar-09 22:59N 40°29' E 017°11'0 0.4
2018-Mar-09 22:30N 40°29' E 017°10'1 2.3
2018-Mar-09 22:00N 40°28' E 017°11'1 1.8
2018-Mar-09 21:30N 40°28' E 017°12'0 0.0
2018-Mar-09 21:00N 40°28' E 017°12'0 0.0
2018-Mar-09 20:30N 40°28' E 017°12'0 0.0
2018-Mar-09 20:00N 40°28' E 017°12'0 0.0
2018-Mar-09 19:30N 40°28' E 017°12'0 0.0
2018-Mar-09 19:00N 40°28' E 017°12'0 0.0
2018-Mar-09 18:30N 40°28' E 017°12'0 0.0
2018-Mar-09 18:00N 40°28' E 017°12'0 0.0
2018-Mar-09 17:30N 40°28' E 017°12'0 0.0
2018-Mar-09 17:00N 40°28' E 017°12'1 2.9
2018-Mar-09 16:30N 40°29' E 017°10'0 0.7
2018-Mar-09 15:55N 40°29' E 017°11'0 0.0
2018-Mar-09 15:30N 40°29' E 017°11'1 2.7
2018-Mar-09 15:00N 40°28' E 017°12'0 1.0
2018-Mar-09 14:30N 40°28' E 017°12'0 0.0
2018-Mar-09 14:00N 40°28' E 017°12'0 0.0
2018-Mar-09 13:30N 40°28' E 017°12'0 0.0
2018-Mar-09 13:00N 40°28' E 017°12'0 0.0
2018-Mar-09 12:30N 40°28' E 017°12'0 0.0
2018-Mar-09 12:00N 40°28' E 017°12'0 0.0
2018-Mar-09 11:30N 40°28' E 017°12'1 2.4
2018-Mar-09 11:00N 40°28' E 017°11'1 1.8
2018-Mar-09 10:30N 40°29' E 017°11'0 0.0
2018-Mar-09 09:59N 40°29' E 017°11'1 3.1
2018-Mar-09 09:30N 40°28' E 017°12'0 0.4
2018-Mar-09 09:00N 40°28' E 017°12'0 0.0
2018-Mar-09 08:30N 40°28' E 017°12'0 0.0
2018-Mar-09 08:00N 40°28' E 017°12'0 0.0
2018-Mar-09 07:29N 40°28' E 017°12'0 0.0
2018-Mar-09 07:00N 40°28' E 017°12'0 0.1
2018-Mar-09 06:30N 40°29' E 017°12'1 2.8
2018-Mar-09 06:00N 40°29' E 017°11'0 0.0
2018-Mar-09 05:30N 40°29' E 017°11'0 0.9
2018-Mar-09 05:00N 40°29' E 017°10'1 2.8
2018-Mar-09 04:30N 40°28' E 017°12'0 0.0
2018-Mar-09 04:00N 40°28' E 017°12'0 0.0
2018-Mar-09 03:30N 40°28' E 017°12'0 0.0
2018-Mar-09 03:00N 40°28' E 017°12'0 0.0
2018-Mar-09 02:30N 40°28' E 017°12'0 0.0
2018-Mar-09 02:00N 40°28' E 017°12'0 0.0
2018-Mar-09 01:31N 40°28' E 017°12'0 0.0
2018-Mar-09 01:00N 40°28' E 017°12'0 0.0
2018-Mar-09 00:30N 40°28' E 017°12'1 1.8
2018-Mar-09 00:00N 40°28' E 017°11'1 2.1
2018-Mar-08 23:30N 40°29' E 017°11'0 0.0
2018-Mar-08 23:00N 40°29' E 017°11'0 0.0
2018-Mar-08 22:30N 40°29' E 017°11'1 1.6
2018-Mar-08 22:00N 40°29' E 017°10'1 2.4
2018-Mar-08 21:30N 40°29' E 017°12'0 0.0
2018-Mar-08 21:00N 40°29' E 017°12'0 0.0
2018-Mar-08 20:29N 40°29' E 017°12'1 0.1
2018-Mar-07 22:00N 40°29' E 017°11'1 1.7
2018-Mar-07 21:30N 40°28' E 017°11'1 2.3
2018-Mar-07 21:00N 40°29' E 017°12'0 0.0
2018-Mar-07 20:30N 40°29' E 017°12'0 0.4
2018-Mar-07 20:00N 40°28' E 017°12'0 0.0
2018-Mar-07 19:30N 40°28' E 017°12'0 0.0
2018-Mar-07 19:00N 40°28' E 017°12'0 0.0
2018-Mar-07 15:39N 40°28' E 017°12'0 0.1
2018-Mar-07 15:30N 40°28' E 017°12'0 0.1
2018-Mar-07 15:00N 40°28' E 017°12'0 0.0
2018-Mar-07 14:30N 40°28' E 017°12'0 0.0
2018-Mar-07 14:00N 40°28' E 017°12'1 2.8
2018-Mar-07 13:30N 40°29' E 017°11'0 0.0
2018-Mar-07 13:00N 40°29' E 017°11'1 2.7
2018-Mar-07 12:30N 40°28' E 017°12'1 1.0
2018-Mar-07 12:00N 40°28' E 017°12'0 0.0
2018-Mar-07 11:30N 40°28' E 017°12'0 0.0
2018-Mar-07 11:00N 40°28' E 017°12'0 0.0
2018-Mar-07 10:30N 40°28' E 017°12'0 0.2
2018-Mar-07 10:00N 40°29' E 017°12'1 2.5
2018-Mar-07 09:27N 40°29' E 017°11'0 0.0
2018-Mar-07 09:00N 40°29' E 017°11'1 2.9
2018-Mar-07 08:30N 40°28' E 017°12'0 0.6
2018-Mar-07 08:00N 40°28' E 017°12'0 0.0
2018-Mar-07 07:30N 40°28' E 017°12'0 0.0
2018-Mar-07 07:00N 40°28' E 017°12'0 0.0
2018-Mar-07 06:30N 40°28' E 017°12'1 2.3
2018-Mar-07 06:00N 40°28' E 017°11'1 1.6
2018-Mar-07 05:29N 40°29' E 017°11'1 1.3
2018-Mar-07 05:00N 40°29' E 017°10'1 2.7
2018-Mar-07 04:30N 40°29' E 017°12'0 0.0
2018-Mar-07 04:00N 40°29' E 017°12'0 0.0
2018-Mar-07 03:30N 40°29' E 017°12'0 0.0
2018-Mar-07 03:00N 40°29' E 017°12'0 0.0
2018-Mar-07 02:30N 40°29' E 017°12'0 0.0
2018-Mar-07 02:00N 40°29' E 017°12'0 0.0
2018-Mar-07 01:30N 40°29' E 017°12'0 0.0
2018-Mar-07 01:00N 40°29' E 017°12'0 0.0
2018-Mar-07 00:30N 40°29' E 017°12'0 0.4
2018-Mar-07 00:00N 40°28' E 017°12'0 0.0
2018-Mar-06 23:30N 40°28' E 017°12'0 0.0
2018-Mar-06 23:00N 40°28' E 017°12'0 0.0
2018-Mar-06 22:30N 40°28' E 017°12'0 0.0
2018-Mar-06 21:59N 40°28' E 017°12'0 0.0
2018-Mar-06 21:30N 40°28' E 017°12'0 0.0
2018-Mar-06 21:00N 40°28' E 017°12'0 0.0
2018-Mar-06 20:30N 40°28' E 017°12'0 0.0
2018-Mar-06 20:00N 40°28' E 017°12'0 0.0
2018-Mar-06 19:30N 40°28' E 017°12'0 0.0
2018-Mar-06 19:00N 40°28' E 017°12'0 0.0
2018-Mar-06 18:30N 40°28' E 017°12'0 0.0
2018-Mar-06 18:00N 40°28' E 017°12'0 0.0
2018-Mar-06 17:30N 40°28' E 017°12'0 0.0
2018-Mar-06 17:00N 40°28' E 017°12'0 0.0
2018-Mar-06 16:30N 40°28' E 017°12'0 0.0
2018-Mar-06 16:00N 40°28' E 017°12'0 0.0
2018-Mar-06 15:30N 40°28' E 017°12'0 0.0
2018-Mar-06 15:00N 40°28' E 017°12'0 0.0
2018-Mar-06 14:30N 40°28' E 017°12'0 0.0
2018-Mar-06 14:00N 40°28' E 017°12'0 0.0
2018-Mar-06 13:29N 40°28' E 017°12'0 0.0
2018-Mar-06 13:00N 40°28' E 017°12'0 0.0
2018-Mar-06 12:30N 40°28' E 017°12'0 0.0
2018-Mar-06 12:00N 40°28' E 017°12'0 0.0
2018-Mar-06 11:30N 40°28' E 017°12'0 0.0
2018-Mar-06 11:00N 40°28' E 017°12'0 0.2
2018-Mar-06 10:30N 40°29' E 017°12'0 0.0
2018-Mar-06 09:57N 40°29' E 017°12'  

Dump ship's entire track history